Wood Ridge, New Jersey
Current Conditions -  °F | °C
As of 12:51 PM on Monday 22 Dec 2014 (Local Time) from KTEB Reporting Station
Overcast Overcast  
Wind Chill: 41°   Ceiling: 1100
Heat Index: 41°   Visibility: 7mi
Dew Point: 34°   Wind: 3mph
Humidity: 76%   Direction: 30°NNE
Pressure: 30.26"   Gusts: NA
Location:  40.85°N, 74.09°W
Report Text: KTEB 221751Z 03003KT 7SM OVC011 05/01 A3026 RMK AO2 SLP247 T00500011 10050 20017 58020
Loading
Personal Weather Stations






























Interactive Weather Map New forecast layout! Learn more

10-Day Weather Forecast

Advertisements
Track Severe Weather on mobile